sensor_id;sensor_type;location;lat;lon;timestamp;noise_LAeq;noise_LA_min;noise_LA_max;noise_LA01;noise_LA95
66458;Laerm;56835;52.198;4.826;2023-05-10T00:00:04;52.90;51.55;54.25;;
66458;Laerm;56835;52.198;4.826;2023-05-10T00:00:16;52.80;50.94;54.28;;
66458;Laerm;56835;52.198;4.826;2023-05-10T00:00:26;52.82;51.12;54.02;;
66458;Laerm;56835;52.198;4.826;2023-05-10T00:00:36;52.82;51.49;54.05;;
66458;Laerm;56835;52.198;4.826;2023-05-10T00:00:46;52.85;51.50;54.30;;
66458;Laerm;56835;52.198;4.826;2023-05-10T00:00:57;52.82;51.42;54.24;;
66458;Laerm;56835;52.198;4.826;2023-05-10T00:01:07;52.79;50.81;54.11;;
66458;Laerm;56835;52.198;4.826;2023-05-10T00:01:17;52.71;49.97;54.06;;
66458;Laerm;56835;52.198;4.826;2023-05-10T00:01:27;52.79;51.44;54.27;;
66458;Laerm;56835;52.198;4.826;2023-05-10T00:01:38;52.81;50.95;53.89;;
66458;Laerm;56835;52.198;4.826;2023-05-10T00:01:48;52.84;50.78;54.04;;
66458;Laerm;56835;52.198;4.826;2023-05-10T00:01:58;52.80;51.48;54.05;;
66458;Laerm;56835;52.198;4.826;2023-05-10T00:02:08;52.74;51.05;54.24;;
66458;Laerm;56835;52.198;4.826;2023-05-10T00:02:19;52.81;51.35;54.37;;
66458;Laerm;56835;52.198;4.826;2023-05-10T00:02:29;52.78;51.32;54.14;;
66458;Laerm;56835;52.198;4.826;2023-05-10T00:02:39;52.78;51.34;54.28;;
66458;Laerm;56835;52.198;4.826;2023-05-10T00:02:50;52.83;50.95;54.13;;
66458;Laerm;56835;52.198;4.826;2023-05-10T00:03:00;52.90;51.25;54.22;;
66458;Laerm;56835;52.198;4.826;2023-05-10T00:03:11;52.84;50.87;54.12;;
66458;Laerm;56835;52.198;4.826;2023-05-10T00:03:21;52.80;51.35;54.35;;
66458;Laerm;56835;52.198;4.826;2023-05-10T00:03:31;52.83;51.27;54.12;;
66458;Laerm;56835;52.198;4.826;2023-05-10T00:03:42;52.80;51.45;54.00;;
66458;Laerm;56835;52.198;4.826;2023-05-10T00:03:52;52.79;50.92;54.07;;
66458;Laerm;56835;52.198;4.826;2023-05-10T00:04:02;52.84;51.32;54.62;;
66458;Laerm;56835;52.198;4.826;2023-05-10T00:04:13;52.80;51.05;54.00;;
66458;Laerm;56835;52.198;4.826;2023-05-10T00:04:23;52.82;51.20;54.25;;
66458;Laerm;56835;52.198;4.826;2023-05-10T00:04:37;52.78;51.08;54.42;;
66458;Laerm;56835;52.198;4.826;2023-05-10T00:04:47;52.77;51.42;54.29;;
66458;Laerm;56835;52.198;4.826;2023-05-10T00:04:58;52.76;51.20;54.06;;
66458;Laerm;56835;52.198;4.826;2023-05-10T00:05:08;52.64;51.15;54.32;;
66458;Laerm;56835;52.198;4.826;2023-05-10T00:05:19;52.83;51.16;54.03;;
66458;Laerm;56835;52.198;4.826;2023-05-10T00:05:29;52.82;50.99;54.00;;
66458;Laerm;56835;52.198;4.826;2023-05-10T00:05:39;52.78;51.26;54.14;;
66458;Laerm;56835;52.198;4.826;2023-05-10T00:05:49;52.88;51.38;54.03;;
66458;Laerm;56835;52.198;4.826;2023-05-10T00:06:00;52.84;51.46;54.12;;
66458;Laerm;56835;52.198;4.826;2023-05-10T00:06:10;52.85;51.55;54.17;;
66458;Laerm;56835;52.198;4.826;2023-05-10T00:06:20;52.92;51.26;54.21;;
66458;Laerm;56835;52.198;4.826;2023-05-10T00:06:31;52.82;51.05;54.41;;
66458;Laerm;56835;52.198;4.826;2023-05-10T00:06:41;52.87;51.51;54.22;;
66458;Laerm;56835;52.198;4.826;2023-05-10T00:06:51;52.83;51.51;54.14;;
66458;Laerm;56835;52.198;4.826;2023-05-10T00:07:02;52.80;51.23;54.22;;
66458;Laerm;56835;52.198;4.826;2023-05-10T00:07:12;52.82;51.53;54.19;;
66458;Laerm;56835;52.198;4.826;2023-05-10T00:07:23;52.82;51.38;54.32;;
66458;Laerm;56835;52.198;4.826;2023-05-10T00:07:33;52.81;51.44;54.57;;
66458;Laerm;56835;52.198;4.826;2023-05-10T00:07:43;52.80;51.37;54.07;;
66458;Laerm;56835;52.198;4.826;2023-05-10T00:07:54;52.85;51.37;54.04;;
66458;Laerm;56835;52.198;4.826;2023-05-10T00:08:05;52.80;51.22;54.47;;
66458;Laerm;56835;52.198;4.826;2023-05-10T00:08:15;52.83;51.21;54.26;;
66458;Laerm;56835;52.198;4.826;2023-05-10T00:08:25;52.83;51.35;54.12;;
66458;Laerm;56835;52.198;4.826;2023-05-10T00:08:35;52.87;51.44;54.31;;
66458;Laerm;56835;52.198;4.826;2023-05-10T00:08:46;52.87;51.50;54.05;;
66458;Laerm;56835;52.198;4.826;2023-05-10T00:08:56;52.81;51.55;54.20;;
66458;Laerm;56835;52.198;4.826;2023-05-10T00:09:06;52.77;51.25;54.11;;
66458;Laerm;56835;52.198;4.826;2023-05-10T00:09:17;52.83;51.35;54.08;;
66458;Laerm;56835;52.198;4.826;2023-05-10T00:09:27;52.86;51.40;54.15;;
66458;Laerm;56835;52.198;4.826;2023-05-10T00:09:37;52.85;51.07;54.26;;
66458;Laerm;56835;52.198;4.826;2023-05-10T00:09:47;52.79;51.44;54.07;;
66458;Laerm;56835;52.198;4.826;2023-05-10T00:09:58;52.79;51.14;54.19;;
66458;Laerm;56835;52.198;4.826;2023-05-10T00:10:08;52.89;51.30;54.09;;
66458;Laerm;56835;52.198;4.826;2023-05-10T00:10:18;52.83;51.24;53.93;;
66458;Laerm;56835;52.198;4.826;2023-05-10T00:10:29;52.83;50.70;54.56;;
66458;Laerm;56835;52.198;4.826;2023-05-10T00:10:39;52.87;50.97;54.29;;
66458;Laerm;56835;52.198;4.826;2023-05-10T00:10:50;52.80;51.42;54.11;;
66458;Laerm;56835;52.198;4.826;2023-05-10T00:11:00;52.82;51.23;54.38;;
66458;Laerm;56835;52.198;4.826;2023-05-10T00:11:10;52.93;51.56;54.15;;
66458;Laerm;56835;52.198;4.826;2023-05-10T00:11:21;52.95;51.32;54.13;;
66458;Laerm;56835;52.198;4.826;2023-05-10T00:11:31;52.87;51.21;54.37;;
66458;Laerm;56835;52.198;4.826;2023-05-10T00:11:41;52.86;51.01;54.38;;
66458;Laerm;56835;52.198;4.826;2023-05-10T00:11:52;52.88;51.44;54.38;;
66458;Laerm;56835;52.198;4.826;2023-05-10T00:12:02;52.85;51.43;54.00;;
66458;Laerm;56835;52.198;4.826;2023-05-10T00:12:12;52.90;51.42;54.45;;
66458;Laerm;56835;52.198;4.826;2023-05-10T00:12:22;52.92;51.59;54.24;;
66458;Laerm;56835;52.198;4.826;2023-05-10T00:12:33;52.89;51.31;54.17;;
66458;Laerm;56835;52.198;4.826;2023-05-10T00:12:43;52.86;50.97;54.10;;
66458;Laerm;56835;52.198;4.826;2023-05-10T00:12:53;52.85;51.22;54.12;;
66458;Laerm;56835;52.198;4.826;2023-05-10T00:13:03;52.92;51.41;54.30;;
66458;Laerm;56835;52.198;4.826;2023-05-10T00:13:14;52.98;51.64;54.59;;
66458;Laerm;56835;52.198;4.826;2023-05-10T00:13:24;52.94;51.32;54.22;;
66458;Laerm;56835;52.198;4.826;2023-05-10T00:13:34;52.91;51.32;54.19;;
66458;Laerm;56835;52.198;4.826;2023-05-10T00:13:44;52.93;51.44;54.27;;
66458;Laerm;56835;52.198;4.826;2023-05-10T00:13:55;52.99;51.04;54.19;;
66458;Laerm;56835;52.198;4.826;2023-05-10T00:14:05;52.93;51.52;54.18;;
66458;Laerm;56835;52.198;4.826;2023-05-10T00:14:16;52.95;51.56;54.39;;
66458;Laerm;56835;52.198;4.826;2023-05-10T00:14:26;52.88;50.84;54.45;;
66458;Laerm;56835;52.198;4.826;2023-05-10T00:14:37;52.89;51.38;54.04;;
66458;Laerm;56835;52.198;4.826;2023-05-10T00:14:47;52.92;51.12;54.40;;
66458;Laerm;56835;52.198;4.826;2023-05-10T00:14:57;52.87;51.30;54.28;;
66458;Laerm;56835;52.198;4.826;2023-05-10T00:15:08;52.91;51.64;54.40;;
66458;Laerm;56835;52.198;4.826;2023-05-10T00:15:18;52.89;50.79;54.22;;
66458;Laerm;56835;52.198;4.826;2023-05-10T00:15:28;52.86;51.37;54.30;;
66458;Laerm;56835;52.198;4.826;2023-05-10T00:15:40;52.88;50.85;54.56;;
66458;Laerm;56835;52.198;4.826;2023-05-10T00:15:50;52.87;51.10;54.15;;
66458;Laerm;56835;52.198;4.826;2023-05-10T00:16:01;52.92;51.48;54.08;;
66458;Laerm;56835;52.198;4.826;2023-05-10T00:16:11;52.84;51.37;54.29;;
66458;Laerm;56835;52.198;4.826;2023-05-10T00:16:23;52.88;51.18;54.18;;
66458;Laerm;56835;52.198;4.826;2023-05-10T00:16:33;52.82;51.50;54.18;;
66458;Laerm;56835;52.198;4.826;2023-05-10T00:16:43;52.92;50.85;54.30;;
66458;Laerm;56835;52.198;4.826;2023-05-10T00:16:53;52.94;51.10;54.43;;
66458;Laerm;56835;52.198;4.826;2023-05-10T00:17:04;52.89;51.50;54.28;;
66458;Laerm;56835;52.198;4.826;2023-05-10T00:17:14;52.93;51.57;54.19;;
66458;Laerm;56835;52.198;4.826;2023-05-10T00:17:24;52.93;51.10;54.35;;
66458;Laerm;56835;52.198;4.826;2023-05-10T00:17:34;52.93;51.46;54.43;;
66458;Laerm;56835;52.198;4.826;2023-05-10T00:17:45;52.96;51.23;54.26;;
66458;Laerm;56835;52.198;4.826;2023-05-10T00:17:55;52.88;51.26;54.19;;
66458;Laerm;56835;52.198;4.826;2023-05-10T00:18:05;52.93;51.60;54.47;;
66458;Laerm;56835;52.198;4.826;2023-05-10T00:18:15;52.91;51.34;54.08;;
66458;Laerm;56835;52.198;4.826;2023-05-10T00:18:26;52.92;51.08;54.14;;
66458;Laerm;56835;52.198;4.826;2023-05-10T00:18:36;52.86;51.31;54.34;;
66458;Laerm;56835;52.198;4.826;2023-05-10T00:18:46;52.91;51.07;54.32;;
66458;Laerm;56835;52.198;4.826;2023-05-10T00:18:56;52.90;51.36;54.40;;
66458;Laerm;56835;52.198;4.826;2023-05-10T00:19:07;52.93;51.42;54.13;;
66458;Laerm;56835;52.198;4.826;2023-05-10T00:19:17;52.92;51.54;54.05;;
66458;Laerm;56835;52.198;4.826;2023-05-10T00:19:27;52.91;51.63;54.15;;
66458;Laerm;56835;52.198;4.826;2023-05-10T00:19:37;52.85;51.25;54.46;;
66458;Laerm;56835;52.198;4.826;2023-05-10T00:19:48;52.91;50.97;54.42;;
66458;Laerm;56835;52.198;4.826;2023-05-10T00:19:58;52.93;51.38;54.51;;
66458;Laerm;56835;52.198;4.826;2023-05-10T00:20:08;52.91;51.01;54.31;;
66458;Laerm;56835;52.198;4.826;2023-05-10T00:20:19;52.93;51.17;54.35;;
66458;Laerm;56835;52.198;4.826;2023-05-10T00:20:29;52.91;51.27;54.50;;
66458;Laerm;56835;52.198;4.826;2023-05-10T00:20:39;52.94;50.90;54.37;;
66458;Laerm;56835;52.198;4.826;2023-05-10T00:20:50;52.95;51.26;54.16;;
66458;Laerm;56835;52.198;4.826;2023-05-10T00:21:00;52.98;51.19;54.60;;
66458;Laerm;56835;52.198;4.826;2023-05-10T00:21:10;52.96;51.38;54.28;;
66458;Laerm;56835;52.198;4.826;2023-05-10T00:21:20;52.97;51.45;54.52;;
66458;Laerm;56835;52.198;4.826;2023-05-10T00:21:31;52.98;51.31;54.42;;
66458;Laerm;56835;52.198;4.826;2023-05-10T00:21:42;52.90;50.96;54.34;;
66458;Laerm;56835;52.198;4.826;2023-05-10T00:21:52;52.89;51.24;54.40;;
66458;Laerm;56835;52.198;4.826;2023-05-10T00:22:02;52.94;50.98;54.25;;
66458;Laerm;56835;52.198;4.826;2023-05-10T00:22:13;52.94;51.37;54.33;;
66458;Laerm;56835;52.198;4.826;2023-05-10T00:22:23;52.91;51.10;54.32;;
66458;Laerm;56835;52.198;4.826;2023-05-10T00:22:33;52.94;51.63;54.23;;
66458;Laerm;56835;52.198;4.826;2023-05-10T00:22:43;52.92;51.27;54.28;;
66458;Laerm;56835;52.198;4.826;2023-05-10T00:22:54;52.95;51.67;54.66;;
66458;Laerm;56835;52.198;4.826;2023-05-10T00:23:04;52.99;50.88;54.37;;
66458;Laerm;56835;52.198;4.826;2023-05-10T00:23:14;52.98;50.91;54.29;;
66458;Laerm;56835;52.198;4.826;2023-05-10T00:23:25;52.97;51.18;54.30;;
66458;Laerm;56835;52.198;4.826;2023-05-10T00:23:35;52.95;51.28;54.16;;
66458;Laerm;56835;52.198;4.826;2023-05-10T00:23:45;52.95;51.48;54.42;;
66458;Laerm;56835;52.198;4.826;2023-05-10T00:23:55;53.00;51.67;54.42;;
66458;Laerm;56835;52.198;4.826;2023-05-10T00:24:06;52.92;51.19;54.07;;
66458;Laerm;56835;52.198;4.826;2023-05-10T00:24:16;52.91;51.23;54.33;;
66458;Laerm;56835;52.198;4.826;2023-05-10T00:24:26;52.93;51.42;54.20;;
66458;Laerm;56835;52.198;4.826;2023-05-10T00:24:36;52.93;51.42;54.42;;
66458;Laerm;56835;52.198;4.826;2023-05-10T00:24:47;52.95;51.25;54.45;;
66458;Laerm;56835;52.198;4.826;2023-05-10T00:24:57;52.94;51.40;54.44;;
66458;Laerm;56835;52.198;4.826;2023-05-10T00:25:08;53.02;51.31;54.37;;
66458;Laerm;56835;52.198;4.826;2023-05-10T00:25:18;52.89;51.31;54.20;;
66458;Laerm;56835;52.198;4.826;2023-05-10T00:25:28;52.98;51.64;54.47;;
66458;Laerm;56835;52.198;4.826;2023-05-10T00:25:38;52.95;51.27;54.19;;
66458;Laerm;56835;52.198;4.826;2023-05-10T00:25:49;52.97;51.38;54.16;;
66458;Laerm;56835;52.198;4.826;2023-05-10T00:25:59;52.96;51.62;54.14;;
66458;Laerm;56835;52.198;4.826;2023-05-10T00:26:09;52.93;51.38;54.28;;
66458;Laerm;56835;52.198;4.826;2023-05-10T00:26:20;52.93;51.28;54.51;;
66458;Laerm;56835;52.198;4.826;2023-05-10T00:26:30;52.91;51.24;54.36;;
66458;Laerm;56835;52.198;4.826;2023-05-10T00:26:40;52.93;51.40;54.14;;
66458;Laerm;56835;52.198;4.826;2023-05-10T00:26:52;52.79;51.32;54.30;;
66458;Laerm;56835;52.198;4.826;2023-05-10T00:27:02;52.90;51.36;54.56;;
66458;Laerm;56835;52.198;4.826;2023-05-10T00:27:14;52.98;51.40;54.53;;
66458;Laerm;56835;52.198;4.826;2023-05-10T00:27:24;53.00;50.82;54.34;;
66458;Laerm;56835;52.198;4.826;2023-05-10T00:27:34;52.95;51.07;54.41;;
66458;Laerm;56835;52.198;4.826;2023-05-10T00:27:45;52.95;51.61;54.18;;
66458;Laerm;56835;52.198;4.826;2023-05-10T00:27:55;52.93;51.48;54.34;;
66458;Laerm;56835;52.198;4.826;2023-05-10T00:28:07;52.98;51.45;54.57;;
66458;Laerm;56835;52.198;4.826;2023-05-10T00:28:17;52.98;51.09;54.24;;
66458;Laerm;56835;52.198;4.826;2023-05-10T00:28:27;52.99;51.37;54.33;;
66458;Laerm;56835;52.198;4.826;2023-05-10T00:28:38;53.05;51.24;54.36;;
66458;Laerm;56835;52.198;4.826;2023-05-10T00:28:48;53.02;51.57;54.38;;
66458;Laerm;56835;52.198;4.826;2023-05-10T00:28:59;53.02;51.46;54.46;;
66458;Laerm;56835;52.198;4.826;2023-05-10T00:29:09;53.00;51.10;54.28;;
66458;Laerm;56835;52.198;4.826;2023-05-10T00:29:20;52.88;51.26;54.40;;
66458;Laerm;56835;52.198;4.826;2023-05-10T00:29:30;52.98;51.21;54.69;;
66458;Laerm;56835;52.198;4.826;2023-05-10T00:29:41;52.96;51.36;54.36;;
66458;Laerm;56835;52.198;4.826;2023-05-10T00:29:51;52.97;51.13;54.38;;
66458;Laerm;56835;52.198;4.826;2023-05-10T00:30:02;52.96;51.48;54.06;;
66458;Laerm;56835;52.198;4.826;2023-05-10T00:30:12;52.96;51.51;54.28;;
66458;Laerm;56835;52.198;4.826;2023-05-10T00:30:22;52.97;51.34;54.42;;
66458;Laerm;56835;52.198;4.826;2023-05-10T00:30:33;52.98;51.56;54.21;;
66458;Laerm;56835;52.198;4.826;2023-05-10T00:30:43;52.98;51.13;54.58;;
66458;Laerm;56835;52.198;4.826;2023-05-10T00:30:53;52.98;51.68;54.31;;
66458;Laerm;56835;52.198;4.826;2023-05-10T00:31:04;52.97;51.39;54.28;;
66458;Laerm;56835;52.198;4.826;2023-05-10T00:31:14;52.97;51.43;54.19;;
66458;Laerm;56835;52.198;4.826;2023-05-10T00:31:24;53.01;51.58;54.28;;
66458;Laerm;56835;52.198;4.826;2023-05-10T00:31:35;52.95;51.43;54.45;;
66458;Laerm;56835;52.198;4.826;2023-05-10T00:31:45;53.03;51.43;54.25;;
66458;Laerm;56835;52.198;4.826;2023-05-10T00:31:55;53.00;51.50;54.50;;
66458;Laerm;56835;52.198;4.826;2023-05-10T00:32:06;52.96;51.44;54.06;;
66458;Laerm;56835;52.198;4.826;2023-05-10T00:32:16;53.02;51.22;54.69;;
66458;Laerm;56835;52.198;4.826;2023-05-10T00:32:26;52.98;51.24;54.11;;
66458;Laerm;56835;52.198;4.826;2023-05-10T00:32:37;53.02;51.26;54.44;;
66458;Laerm;56835;52.198;4.826;2023-05-10T00:32:47;53.08;51.49;54.93;;
66458;Laerm;56835;52.198;4.826;2023-05-10T00:32:59;53.06;51.31;54.13;;
66458;Laerm;56835;52.198;4.826;2023-05-10T00:33:10;53.08;51.55;54.48;;
66458;Laerm;56835;52.198;4.826;2023-05-10T00:33:21;52.98;51.35;54.16;;
66458;Laerm;56835;52.198;4.826;2023-05-10T00:33:31;52.97;51.32;54.17;;
66458;Laerm;56835;52.198;4.826;2023-05-10T00:33:42;53.07;51.72;54.49;;
66458;Laerm;56835;52.198;4.826;2023-05-10T00:33:52;52.97;51.50;54.58;;
66458;Laerm;56835;52.198;4.826;2023-05-10T00:34:02;52.99;51.34;54.38;;
66458;Laerm;56835;52.198;4.826;2023-05-10T00:34:13;52.97;50.95;54.70;;
66458;Laerm;56835;52.198;4.826;2023-05-10T00:34:23;53.04;51.53;54.35;;
66458;Laerm;56835;52.198;4.826;2023-05-10T00:34:34;52.96;51.36;54.35;;
66458;Laerm;56835;52.198;4.826;2023-05-10T00:34:44;53.00;51.22;54.47;;
66458;Laerm;56835;52.198;4.826;2023-05-10T00:34:55;53.02;51.55;54.53;;
66458;Laerm;56835;52.198;4.826;2023-05-10T00:35:05;53.01;51.60;54.42;;
66458;Laerm;56835;52.198;4.826;2023-05-10T00:35:15;52.95;51.44;54.33;;
66458;Laerm;56835;52.198;4.826;2023-05-10T00:35:26;52.95;51.35;54.09;;
66458;Laerm;56835;52.198;4.826;2023-05-10T00:35:36;53.01;51.20;54.18;;
66458;Laerm;56835;52.198;4.826;2023-05-10T00:35:47;53.00;51.63;54.35;;
66458;Laerm;56835;52.198;4.826;2023-05-10T00:35:58;53.02;51.55;54.41;;
66458;Laerm;56835;52.198;4.826;2023-05-10T00:36:08;53.00;51.38;54.66;;
66458;Laerm;56835;52.198;4.826;2023-05-10T00:36:18;52.99;51.40;54.35;;
66458;Laerm;56835;52.198;4.826;2023-05-10T00:36:29;53.03;51.63;54.25;;
66458;Laerm;56835;52.198;4.826;2023-05-10T00:36:39;53.06;51.57;54.36;;
66458;Laerm;56835;52.198;4.826;2023-05-10T00:36:49;53.04;51.62;54.27;;
66458;Laerm;56835;52.198;4.826;2023-05-10T00:36:59;53.04;51.41;54.54;;
66458;Laerm;56835;52.198;4.826;2023-05-10T00:37:10;53.07;51.52;54.38;;
66458;Laerm;56835;52.198;4.826;2023-05-10T00:37:20;53.13;50.92;54.76;;
66458;Laerm;56835;52.198;4.826;2023-05-10T00:37:30;53.03;51.42;54.48;;
66458;Laerm;56835;52.198;4.826;2023-05-10T00:37:41;53.00;51.34;54.18;;
66458;Laerm;56835;52.198;4.826;2023-05-10T00:37:51;53.06;51.24;54.29;;
66458;Laerm;56835;52.198;4.826;2023-05-10T00:38:02;52.98;51.31;54.45;;
66458;Laerm;56835;52.198;4.826;2023-05-10T00:38:12;53.04;51.39;54.31;;
66458;Laerm;56835;52.198;4.826;2023-05-10T00:38:22;53.10;51.43;54.42;;
66458;Laerm;56835;52.198;4.826;2023-05-10T00:38:33;52.97;51.64;54.11;;
66458;Laerm;56835;52.198;4.826;2023-05-10T00:38:43;53.06;50.91;54.58;;
66458;Laerm;56835;52.198;4.826;2023-05-10T00:38:53;53.04;51.41;54.36;;
66458;Laerm;56835;52.198;4.826;2023-05-10T00:39:03;53.00;51.77;54.48;;
66458;Laerm;56835;52.198;4.826;2023-05-10T00:39:14;53.06;51.21;54.49;;
66458;Laerm;56835;52.198;4.826;2023-05-10T00:39:24;53.03;50.86;54.95;;
66458;Laerm;56835;52.198;4.826;2023-05-10T00:39:36;53.05;51.17;54.29;;
66458;Laerm;56835;52.198;4.826;2023-05-10T00:39:46;53.02;51.60;54.28;;
66458;Laerm;56835;52.198;4.826;2023-05-10T00:39:56;53.06;51.36;54.88;;
66458;Laerm;56835;52.198;4.826;2023-05-10T00:40:07;53.12;51.22;54.70;;
66458;Laerm;56835;52.198;4.826;2023-05-10T00:40:17;53.03;51.75;54.30;;
66458;Laerm;56835;52.198;4.826;2023-05-10T00:40:27;53.04;51.19;54.31;;
66458;Laerm;56835;52.198;4.826;2023-05-10T00:40:38;53.01;51.44;54.61;;
66458;Laerm;56835;52.198;4.826;2023-05-10T00:40:48;53.08;51.51;54.67;;
66458;Laerm;56835;52.198;4.826;2023-05-10T00:40:59;53.06;51.41;54.28;;
66458;Laerm;56835;52.198;4.826;2023-05-10T00:41:09;53.05;51.02;54.44;;
66458;Laerm;56835;52.198;4.826;2023-05-10T00:41:19;53.03;51.39;54.39;;
66458;Laerm;56835;52.198;4.826;2023-05-10T00:41:31;53.05;51.50;54.48;;
66458;Laerm;56835;52.198;4.826;2023-05-10T00:41:42;53.01;51.14;54.30;;
66458;Laerm;56835;52.198;4.826;2023-05-10T00:41:52;53.05;51.47;54.18;;
66458;Laerm;56835;52.198;4.826;2023-05-10T00:42:03;53.07;51.31;54.82;;
66458;Laerm;56835;52.198;4.826;2023-05-10T00:42:14;53.01;51.20;54.58;;
66458;Laerm;56835;52.198;4.826;2023-05-10T00:42:24;53.04;51.53;54.44;;
66458;Laerm;56835;52.198;4.826;2023-05-10T00:42:35;52.97;51.63;54.29;;
66458;Laerm;56835;52.198;4.826;2023-05-10T00:42:45;52.96;51.46;54.41;;
66458;Laerm;56835;52.198;4.826;2023-05-10T00:42:55;53.04;51.76;54.52;;
66458;Laerm;56835;52.198;4.826;2023-05-10T00:43:06;53.05;51.35;54.21;;
66458;Laerm;56835;52.198;4.826;2023-05-10T00:43:16;53.06;51.31;54.18;;
66458;Laerm;56835;52.198;4.826;2023-05-10T00:43:26;52.99;51.23;54.31;;
66458;Laerm;56835;52.198;4.826;2023-05-10T00:43:36;53.04;51.20;54.58;;
66458;Laerm;56835;52.198;4.826;2023-05-10T00:43:47;53.01;51.37;54.17;;
66458;Laerm;56835;52.198;4.826;2023-05-10T00:43:57;53.06;51.71;54.38;;
66458;Laerm;56835;52.198;4.826;2023-05-10T00:44:07;52.99;51.55;54.60;;
66458;Laerm;56835;52.198;4.826;2023-05-10T00:44:17;53.02;51.23;54.62;;
66458;Laerm;56835;52.198;4.826;2023-05-10T00:44:28;52.98;51.66;54.34;;
66458;Laerm;56835;52.198;4.826;2023-05-10T00:44:38;53.01;51.21;54.45;;
66458;Laerm;56835;52.198;4.826;2023-05-10T00:44:49;53.04;51.52;54.55;;
66458;Laerm;56835;52.198;4.826;2023-05-10T00:44:59;52.98;51.51;54.16;;
66458;Laerm;56835;52.198;4.826;2023-05-10T00:45:09;53.03;51.48;54.34;;
66458;Laerm;56835;52.198;4.826;2023-05-10T00:45:19;52.96;51.14;54.21;;
66458;Laerm;56835;52.198;4.826;2023-05-10T00:45:30;52.98;51.54;54.32;;
66458;Laerm;56835;52.198;4.826;2023-05-10T00:45:41;53.00;50.85;54.48;;
66458;Laerm;56835;52.198;4.826;2023-05-10T00:45:52;53.01;51.10;54.28;;
66458;Laerm;56835;52.198;4.826;2023-05-10T00:46:02;52.93;51.63;54.37;;
66458;Laerm;56835;52.198;4.826;2023-05-10T00:46:14;53.00;51.62;54.54;;
66458;Laerm;56835;52.198;4.826;2023-05-10T00:46:24;53.00;51.52;54.33;;
66458;Laerm;56835;52.198;4.826;2023-05-10T00:46:35;52.96;51.41;54.31;;
66458;Laerm;56835;52.198;4.826;2023-05-10T00:46:46;52.95;51.60;54.34;;
66458;Laerm;56835;52.198;4.826;2023-05-10T00:46:57;52.99;51.40;54.47;;
66458;Laerm;56835;52.198;4.826;2023-05-10T00:47:07;53.02;51.60;54.31;;
66458;Laerm;56835;52.198;4.826;2023-05-10T00:47:18;53.07;51.42;54.40;;
66458;Laerm;56835;52.198;4.826;2023-05-10T00:47:28;53.00;51.41;54.33;;
66458;Laerm;56835;52.198;4.826;2023-05-10T00:47:39;52.98;51.35;54.38;;
66458;Laerm;56835;52.198;4.826;2023-05-10T00:47:49;52.99;51.19;54.53;;
66458;Laerm;56835;52.198;4.826;2023-05-10T00:48:02;52.96;51.26;54.24;;
66458;Laerm;56835;52.198;4.826;2023-05-10T00:48:12;53.00;51.67;54.24;;
66458;Laerm;56835;52.198;4.826;2023-05-10T00:48:23;52.95;51.35;54.38;;
66458;Laerm;56835;52.198;4.826;2023-05-10T00:48:33;52.93;51.26;54.89;;
66458;Laerm;56835;52.198;4.826;2023-05-10T00:48:44;52.99;51.21;54.12;;
66458;Laerm;56835;52.198;4.826;2023-05-10T00:48:54;53.02;51.53;54.42;;
66458;Laerm;56835;52.198;4.826;2023-05-10T00:49:05;53.01;51.40;54.28;;
66458;Laerm;56835;52.198;4.826;2023-05-10T00:49:16;52.90;51.24;54.10;;
66458;Laerm;56835;52.198;4.826;2023-05-10T00:49:26;52.99;51.63;54.29;;
66458;Laerm;56835;52.198;4.826;2023-05-10T00:49:36;52.98;51.27;54.81;;
66458;Laerm;56835;52.198;4.826;2023-05-10T00:49:47;52.96;51.43;54.69;;
66458;Laerm;56835;52.198;4.826;2023-05-10T00:49:57;52.94;50.97;54.15;;
66458;Laerm;56835;52.198;4.826;2023-05-10T00:50:08;53.02;51.46;54.38;;
66458;Laerm;56835;52.198;4.826;2023-05-10T00:50:19;52.96;51.46;54.27;;
66458;Laerm;56835;52.198;4.826;2023-05-10T00:50:30;52.96;51.73;54.24;;
66458;Laerm;56835;52.198;4.826;2023-05-10T00:50:40;52.98;50.84;54.22;;
66458;Laerm;56835;52.198;4.826;2023-05-10T00:50:51;52.97;51.13;54.16;;
66458;Laerm;56835;52.198;4.826;2023-05-10T00:51:02;53.02;51.28;54.23;;
66458;Laerm;56835;52.198;4.826;2023-05-10T00:51:13;52.95;51.38;54.56;;
66458;Laerm;56835;52.198;4.826;2023-05-10T00:51:23;52.93;51.25;54.08;;
66458;Laerm;56835;52.198;4.826;2023-05-10T00:51:34;53.07;51.39;54.66;;
66458;Laerm;56835;52.198;4.826;2023-05-10T00:51:45;53.04;51.30;54.43;;
66458;Laerm;56835;52.198;4.826;2023-05-10T00:51:55;52.99;51.59;54.42;;
66458;Laerm;56835;52.198;4.826;2023-05-10T00:52:06;52.98;51.58;54.48;;
66458;Laerm;56835;52.198;4.826;2023-05-10T00:52:16;53.01;50.97;54.31;;
66458;Laerm;56835;52.198;4.826;2023-05-10T00:52:27;53.04;51.42;54.46;;
66458;Laerm;56835;52.198;4.826;2023-05-10T00:52:38;52.98;51.61;54.27;;
66458;Laerm;56835;52.198;4.826;2023-05-10T00:52:48;53.00;51.33;54.60;;
66458;Laerm;56835;52.198;4.826;2023-05-10T00:52:59;52.97;51.61;54.45;;
66458;Laerm;56835;52.198;4.826;2023-05-10T00:53:09;53.04;51.26;54.44;;
66458;Laerm;56835;52.198;4.826;2023-05-10T00:53:20;52.94;51.62;54.25;;
66458;Laerm;56835;52.198;4.826;2023-05-10T00:53:31;52.99;51.44;54.27;;
66458;Laerm;56835;52.198;4.826;2023-05-10T00:53:41;52.91;51.21;54.69;;
66458;Laerm;56835;52.198;4.826;2023-05-10T00:53:51;52.92;51.06;54.14;;
66458;Laerm;56835;52.198;4.826;2023-05-10T00:54:02;52.91;51.29;54.29;;
66458;Laerm;56835;52.198;4.826;2023-05-10T00:54:13;53.04;51.52;54.32;;
66458;Laerm;56835;52.198;4.826;2023-05-10T00:54:24;52.96;51.68;54.36;;
66458;Laerm;56835;52.198;4.826;2023-05-10T00:54:34;52.98;51.15;54.27;;
66458;Laerm;56835;52.198;4.826;2023-05-10T00:54:45;52.96;51.28;54.32;;
66458;Laerm;56835;52.198;4.826;2023-05-10T00:54:56;52.90;51.07;54.40;;
66458;Laerm;56835;52.198;4.826;2023-05-10T00:55:07;52.93;51.35;54.21;;
66458;Laerm;56835;52.198;4.826;2023-05-10T00:55:17;52.96;51.29;54.38;;
66458;Laerm;56835;52.198;4.826;2023-05-10T00:55:28;52.98;51.34;54.81;;
66458;Laerm;56835;52.198;4.826;2023-05-10T00:55:38;52.96;51.56;54.52;;
66458;Laerm;56835;52.198;4.826;2023-05-10T00:55:49;52.91;51.22;54.19;;
66458;Laerm;56835;52.198;4.826;2023-05-10T00:55:59;52.91;51.12;54.35;;
66458;Laerm;56835;52.198;4.826;2023-05-10T00:56:09;52.95;51.22;54.16;;
66458;Laerm;56835;52.198;4.826;2023-05-10T00:56:20;52.89;50.95;54.31;;
66458;Laerm;56835;52.198;4.826;2023-05-10T00:56:32;52.98;51.35;54.45;;
66458;Laerm;56835;52.198;4.826;2023-05-10T00:56:43;52.91;51.20;54.23;;
66458;Laerm;56835;52.198;4.826;2023-05-10T00:56:59;52.95;51.45;54.22;;
66458;Laerm;56835;52.198;4.826;2023-05-10T00:57:09;53.05;51.61;54.64;;
66458;Laerm;56835;52.198;4.826;2023-05-10T00:57:19;52.92;51.04;54.92;;
66458;Laerm;56835;52.198;4.826;2023-05-10T00:57:30;52.91;51.49;54.12;;
66458;Laerm;56835;52.198;4.826;2023-05-10T00:57:41;52.97;51.21;54.10;;
66458;Laerm;56835;52.198;4.826;2023-05-10T00:57:52;52.89;51.27;54.11;;
66458;Laerm;56835;52.198;4.826;2023-05-10T00:58:02;52.96;51.37;54.35;;
66458;Laerm;56835;52.198;4.826;2023-05-10T00:58:13;52.97;51.33;54.33;;
66458;Laerm;56835;52.198;4.826;2023-05-10T00:58:23;52.95;51.17;54.05;;
66458;Laerm;56835;52.198;4.826;2023-05-10T00:58:38;52.93;51.41;54.29;;